sensor_id;sensor_type;location;lat;lon;timestamp;P1;durP1;ratioP1;P2;durP2;ratioP2
64063;SDS011;50314;50.618;10.642;2023-07-31T00:00:36;1.63;;;1.00;;
64063;SDS011;50314;50.618;10.642;2023-07-31T00:03:04;1.77;;;1.20;;
64063;SDS011;50314;50.618;10.642;2023-07-31T00:05:29;3.33;;;1.20;;
64063;SDS011;50314;50.618;10.642;2023-07-31T00:07:55;1.33;;;1.20;;
64063;SDS011;50314;50.618;10.642;2023-07-31T00:10:23;1.10;;;0.88;;
64063;SDS011;50314;50.618;10.642;2023-07-31T00:12:48;1.30;;;0.82;;
64063;SDS011;50314;50.618;10.642;2023-07-31T00:15:14;1.33;;;1.05;;
64063;SDS011;50314;50.618;10.642;2023-07-31T00:17:40;2.15;;;1.15;;
64063;SDS011;50314;50.618;10.642;2023-07-31T00:26:38;0.90;;;0.80;;
64063;SDS011;50314;50.618;10.642;2023-07-31T00:29:03;1.98;;;1.10;;
64063;SDS011;50314;50.618;10.642;2023-07-31T00:31:29;1.58;;;1.25;;
64063;SDS011;50314;50.618;10.642;2023-07-31T00:33:54;1.33;;;1.00;;
64063;SDS011;50314;50.618;10.642;2023-07-31T00:36:20;1.08;;;0.98;;
64063;SDS011;50314;50.618;10.642;2023-07-31T00:38:46;1.67;;;1.10;;
64063;SDS011;50314;50.618;10.642;2023-07-31T00:41:11;1.42;;;1.00;;
64063;SDS011;50314;50.618;10.642;2023-07-31T00:43:37;1.17;;;0.90;;
64063;SDS011;50314;50.618;10.642;2023-07-31T00:46:02;1.58;;;1.20;;
64063;SDS011;50314;50.618;10.642;2023-07-31T00:48:28;1.33;;;1.10;;
64063;SDS011;50314;50.618;10.642;2023-07-31T00:50:54;2.13;;;1.30;;
64063;SDS011;50314;50.618;10.642;2023-07-31T00:53:19;1.70;;;0.98;;
64063;SDS011;50314;50.618;10.642;2023-07-31T00:55:45;0.80;;;0.80;;
64063;SDS011;50314;50.618;10.642;2023-07-31T00:58:11;1.35;;;1.00;;
64063;SDS011;50314;50.618;10.642;2023-07-31T01:00:37;1.30;;;1.00;;
64063;SDS011;50314;50.618;10.642;2023-07-31T01:03:02;1.70;;;0.88;;
64063;SDS011;50314;50.618;10.642;2023-07-31T01:05:54;1.13;;;0.77;;
64063;SDS011;50314;50.618;10.642;2023-07-31T01:08:21;2.25;;;1.20;;
64063;SDS011;50314;50.618;10.642;2023-07-31T01:11:16;1.48;;;1.10;;
64063;SDS011;50314;50.618;10.642;2023-07-31T01:13:47;2.25;;;1.10;;
64063;SDS011;50314;50.618;10.642;2023-07-31T01:16:13;1.42;;;1.10;;
64063;SDS011;50314;50.618;10.642;2023-07-31T01:18:38;1.45;;;0.98;;
64063;SDS011;50314;50.618;10.642;2023-07-31T01:21:17;1.30;;;1.17;;
64063;SDS011;50314;50.618;10.642;2023-07-31T01:26:47;1.30;;;0.98;;
64063;SDS011;50314;50.618;10.642;2023-07-31T01:29:39;1.35;;;0.80;;
64063;SDS011;50314;50.618;10.642;2023-07-31T01:32:08;1.60;;;1.08;;
64063;SDS011;50314;50.618;10.642;2023-07-31T01:34:35;1.95;;;1.13;;
64063;SDS011;50314;50.618;10.642;2023-07-31T01:37:02;1.48;;;1.00;;
64063;SDS011;50314;50.618;10.642;2023-07-31T01:39:28;1.30;;;0.82;;
64063;SDS011;50314;50.618;10.642;2023-07-31T01:41:53;1.17;;;0.90;;
64063;SDS011;50314;50.618;10.642;2023-07-31T01:44:19;1.27;;;1.00;;
64063;SDS011;50314;50.618;10.642;2023-07-31T01:46:45;1.45;;;1.05;;
64063;SDS011;50314;50.618;10.642;2023-07-31T01:49:10;1.23;;;0.70;;
64063;SDS011;50314;50.618;10.642;2023-07-31T01:51:36;1.80;;;1.15;;
64063;SDS011;50314;50.618;10.642;2023-07-31T01:54:02;1.17;;;0.90;;
64063;SDS011;50314;50.618;10.642;2023-07-31T01:56:28;1.85;;;0.90;;
64063;SDS011;50314;50.618;10.642;2023-07-31T01:58:53;1.77;;;0.90;;
64063;SDS011;50314;50.618;10.642;2023-07-31T02:01:19;1.25;;;1.05;;
64063;SDS011;50314;50.618;10.642;2023-07-31T02:03:45;2.83;;;1.00;;
64063;SDS011;50314;50.618;10.642;2023-07-31T02:06:10;0.80;;;0.80;;
64063;SDS011;50314;50.618;10.642;2023-07-31T02:08:36;0.98;;;0.95;;
64063;SDS011;50314;50.618;10.642;2023-07-31T02:11:01;1.38;;;1.27;;
64063;SDS011;50314;50.618;10.642;2023-07-31T02:13:27;1.27;;;0.90;;
64063;SDS011;50314;50.618;10.642;2023-07-31T02:15:52;1.73;;;1.20;;
64063;SDS011;50314;50.618;10.642;2023-07-31T02:18:18;1.38;;;1.00;;
64063;SDS011;50314;50.618;10.642;2023-07-31T02:20:48;2.05;;;1.00;;
64063;SDS011;50314;50.618;10.642;2023-07-31T02:23:17;1.55;;;0.90;;
64063;SDS011;50314;50.618;10.642;2023-07-31T02:25:43;1.60;;;1.02;;
64063;SDS011;50314;50.618;10.642;2023-07-31T02:28:09;1.05;;;1.00;;
64063;SDS011;50314;50.618;10.642;2023-07-31T02:30:35;1.73;;;1.08;;
64063;SDS011;50314;50.618;10.642;2023-07-31T02:33:01;1.15;;;0.88;;
64063;SDS011;50314;50.618;10.642;2023-07-31T02:35:27;1.58;;;0.90;;
64063;SDS011;50314;50.618;10.642;2023-07-31T02:37:52;1.42;;;0.98;;
64063;SDS011;50314;50.618;10.642;2023-07-31T02:40:18;2.00;;;1.02;;
64063;SDS011;50314;50.618;10.642;2023-07-31T02:42:44;1.52;;;1.00;;
64063;SDS011;50314;50.618;10.642;2023-07-31T02:45:09;1.35;;;0.90;;
64063;SDS011;50314;50.618;10.642;2023-07-31T02:47:35;1.73;;;1.00;;
64063;SDS011;50314;50.618;10.642;2023-07-31T02:50:02;1.60;;;1.15;;
64063;SDS011;50314;50.618;10.642;2023-07-31T02:52:30;1.25;;;0.93;;
64063;SDS011;50314;50.618;10.642;2023-07-31T02:54:57;0.98;;;0.90;;
64063;SDS011;50314;50.618;10.642;2023-07-31T02:57:23;1.00;;;0.80;;
64063;SDS011;50314;50.618;10.642;2023-07-31T02:59:48;1.23;;;0.80;;
64063;SDS011;50314;50.618;10.642;2023-07-31T03:02:14;0.80;;;0.80;;
64063;SDS011;50314;50.618;10.642;2023-07-31T03:04:40;0.82;;;0.77;;
64063;SDS011;50314;50.618;10.642;2023-07-31T03:07:05;2.05;;;1.10;;
64063;SDS011;50314;50.618;10.642;2023-07-31T03:09:31;1.15;;;1.05;;
64063;SDS011;50314;50.618;10.642;2023-07-31T03:11:57;1.33;;;1.23;;
64063;SDS011;50314;50.618;10.642;2023-07-31T03:14:22;0.75;;;0.75;;
64063;SDS011;50314;50.618;10.642;2023-07-31T03:16:48;1.27;;;1.08;;
64063;SDS011;50314;50.618;10.642;2023-07-31T03:19:14;1.10;;;0.98;;
64063;SDS011;50314;50.618;10.642;2023-07-31T03:21:40;1.15;;;1.00;;
64063;SDS011;50314;50.618;10.642;2023-07-31T03:24:06;1.52;;;1.00;;
64063;SDS011;50314;50.618;10.642;2023-07-31T03:26:32;0.98;;;0.85;;
64063;SDS011;50314;50.618;10.642;2023-07-31T03:28:57;1.00;;;1.00;;
64063;SDS011;50314;50.618;10.642;2023-07-31T03:31:23;1.15;;;0.98;;
64063;SDS011;50314;50.618;10.642;2023-07-31T03:33:49;1.42;;;0.90;;
64063;SDS011;50314;50.618;10.642;2023-07-31T03:36:14;1.20;;;1.10;;
64063;SDS011;50314;50.618;10.642;2023-07-31T03:38:40;1.00;;;0.90;;
64063;SDS011;50314;50.618;10.642;2023-07-31T03:41:05;1.50;;;1.00;;
64063;SDS011;50314;50.618;10.642;2023-07-31T03:43:31;1.85;;;1.17;;
64063;SDS011;50314;50.618;10.642;2023-07-31T03:45:59;1.40;;;1.02;;
64063;SDS011;50314;50.618;10.642;2023-07-31T03:48:25;1.00;;;0.90;;
64063;SDS011;50314;50.618;10.642;2023-07-31T03:50:51;1.02;;;0.90;;
64063;SDS011;50314;50.618;10.642;2023-07-31T03:53:16;1.40;;;1.00;;
64063;SDS011;50314;50.618;10.642;2023-07-31T03:55:42;1.90;;;1.17;;
64063;SDS011;50314;50.618;10.642;2023-07-31T03:58:08;1.90;;;0.98;;
64063;SDS011;50314;50.618;10.642;2023-07-31T04:00:34;1.60;;;0.90;;
64063;SDS011;50314;50.618;10.642;2023-07-31T04:02:59;1.55;;;1.10;;
64063;SDS011;50314;50.618;10.642;2023-07-31T04:05:25;1.83;;;1.17;;
64063;SDS011;50314;50.618;10.642;2023-07-31T04:07:51;0.98;;;0.98;;
64063;SDS011;50314;50.618;10.642;2023-07-31T04:10:16;1.58;;;1.08;;
64063;SDS011;50314;50.618;10.642;2023-07-31T04:12:42;2.05;;;1.00;;
64063;SDS011;50314;50.618;10.642;2023-07-31T04:15:07;0.70;;;0.70;;
64063;SDS011;50314;50.618;10.642;2023-07-31T04:17:33;1.45;;;1.13;;
64063;SDS011;50314;50.618;10.642;2023-07-31T04:19:59;1.50;;;1.05;;
64063;SDS011;50314;50.618;10.642;2023-07-31T04:22:25;1.38;;;1.10;;
64063;SDS011;50314;50.618;10.642;2023-07-31T04:24:50;1.13;;;1.00;;
64063;SDS011;50314;50.618;10.642;2023-07-31T04:27:16;2.03;;;1.02;;
64063;SDS011;50314;50.618;10.642;2023-07-31T04:29:41;1.42;;;0.98;;
64063;SDS011;50314;50.618;10.642;2023-07-31T04:32:09;1.38;;;0.98;;
64063;SDS011;50314;50.618;10.642;2023-07-31T04:34:34;1.27;;;0.93;;
64063;SDS011;50314;50.618;10.642;2023-07-31T04:37:00;1.08;;;0.95;;
64063;SDS011;50314;50.618;10.642;2023-07-31T04:39:26;1.70;;;0.88;;
64063;SDS011;50314;50.618;10.642;2023-07-31T04:41:51;1.25;;;1.10;;
64063;SDS011;50314;50.618;10.642;2023-07-31T04:44:17;1.25;;;1.13;;
64063;SDS011;50314;50.618;10.642;2023-07-31T04:46:44;1.88;;;1.17;;
64063;SDS011;50314;50.618;10.642;2023-07-31T04:49:16;1.65;;;0.90;;
64063;SDS011;50314;50.618;10.642;2023-07-31T04:51:41;2.00;;;1.02;;
64063;SDS011;50314;50.618;10.642;2023-07-31T04:54:07;1.60;;;1.00;;
64063;SDS011;50314;50.618;10.642;2023-07-31T04:56:32;1.13;;;0.88;;
64063;SDS011;50314;50.618;10.642;2023-07-31T04:58:58;1.45;;;1.23;;
64063;SDS011;50314;50.618;10.642;2023-07-31T05:01:23;0.88;;;0.88;;
64063;SDS011;50314;50.618;10.642;2023-07-31T05:03:49;1.17;;;1.00;;
64063;SDS011;50314;50.618;10.642;2023-07-31T05:06:14;1.65;;;1.10;;
64063;SDS011;50314;50.618;10.642;2023-07-31T05:08:40;2.33;;;1.23;;
64063;SDS011;50314;50.618;10.642;2023-07-31T05:11:06;1.13;;;1.00;;
64063;SDS011;50314;50.618;10.642;2023-07-31T05:13:31;1.38;;;1.17;;
64063;SDS011;50314;50.618;10.642;2023-07-31T05:15:57;4.18;;;1.38;;
64063;SDS011;50314;50.618;10.642;2023-07-31T05:18:22;1.75;;;1.00;;
64063;SDS011;50314;50.618;10.642;2023-07-31T05:20:48;1.23;;;0.80;;
64063;SDS011;50314;50.618;10.642;2023-07-31T05:23:13;1.10;;;1.00;;
64063;SDS011;50314;50.618;10.642;2023-07-31T05:25:39;2.60;;;1.20;;
64063;SDS011;50314;50.618;10.642;2023-07-31T05:28:05;1.30;;;1.00;;
64063;SDS011;50314;50.618;10.642;2023-07-31T05:30:30;1.35;;;0.90;;
64063;SDS011;50314;50.618;10.642;2023-07-31T05:32:56;2.40;;;1.20;;
64063;SDS011;50314;50.618;10.642;2023-07-31T05:35:22;1.65;;;1.08;;
64063;SDS011;50314;50.618;10.642;2023-07-31T05:37:48;1.27;;;1.00;;
64063;SDS011;50314;50.618;10.642;2023-07-31T05:40:13;2.95;;;1.00;;
64063;SDS011;50314;50.618;10.642;2023-07-31T05:42:39;2.08;;;1.10;;
64063;SDS011;50314;50.618;10.642;2023-07-31T05:45:06;1.60;;;1.00;;
64063;SDS011;50314;50.618;10.642;2023-07-31T05:47:32;1.50;;;0.98;;
64063;SDS011;50314;50.618;10.642;2023-07-31T05:49:58;1.05;;;0.90;;
64063;SDS011;50314;50.618;10.642;2023-07-31T05:52:24;1.45;;;1.30;;
64063;SDS011;50314;50.618;10.642;2023-07-31T05:54:49;1.67;;;1.00;;
64063;SDS011;50314;50.618;10.642;2023-07-31T06:02:07;1.45;;;1.02;;
64063;SDS011;50314;50.618;10.642;2023-07-31T06:04:32;1.20;;;1.10;;
64063;SDS011;50314;50.618;10.642;2023-07-31T06:06:58;3.45;;;1.60;;
64063;SDS011;50314;50.618;10.642;2023-07-31T06:09:24;1.95;;;1.73;;
64063;SDS011;50314;50.618;10.642;2023-07-31T06:11:50;2.90;;;1.77;;
64063;SDS011;50314;50.618;10.642;2023-07-31T06:14:16;2.30;;;1.65;;
64063;SDS011;50314;50.618;10.642;2023-07-31T06:16:42;3.35;;;1.50;;
64063;SDS011;50314;50.618;10.642;2023-07-31T06:19:09;4.05;;;1.40;;
64063;SDS011;50314;50.618;10.642;2023-07-31T06:21:35;2.70;;;1.77;;
64063;SDS011;50314;50.618;10.642;2023-07-31T06:24:02;2.35;;;1.63;;
64063;SDS011;50314;50.618;10.642;2023-07-31T06:26:28;3.05;;;1.50;;
64063;SDS011;50314;50.618;10.642;2023-07-31T06:28:54;2.83;;;1.38;;
64063;SDS011;50314;50.618;10.642;2023-07-31T06:31:19;2.63;;;1.38;;
64063;SDS011;50314;50.618;10.642;2023-07-31T06:33:47;2.08;;;1.30;;
64063;SDS011;50314;50.618;10.642;2023-07-31T06:36:16;3.45;;;1.63;;
64063;SDS011;50314;50.618;10.642;2023-07-31T06:38:42;1.98;;;1.52;;
64063;SDS011;50314;50.618;10.642;2023-07-31T06:41:07;1.67;;;1.30;;
64063;SDS011;50314;50.618;10.642;2023-07-31T06:43:33;2.13;;;1.30;;
64063;SDS011;50314;50.618;10.642;2023-07-31T06:46:04;3.50;;;1.35;;
64063;SDS011;50314;50.618;10.642;2023-07-31T06:48:30;1.75;;;1.02;;
64063;SDS011;50314;50.618;10.642;2023-07-31T06:50:56;2.35;;;1.35;;
64063;SDS011;50314;50.618;10.642;2023-07-31T06:53:21;2.92;;;1.35;;
64063;SDS011;50314;50.618;10.642;2023-07-31T06:55:47;1.92;;;1.30;;
64063;SDS011;50314;50.618;10.642;2023-07-31T06:58:13;2.75;;;1.40;;
64063;SDS011;50314;50.618;10.642;2023-07-31T07:00:39;2.47;;;1.40;;
64063;SDS011;50314;50.618;10.642;2023-07-31T07:03:04;3.03;;;1.60;;
64063;SDS011;50314;50.618;10.642;2023-07-31T07:05:30;1.98;;;1.63;;
64063;SDS011;50314;50.618;10.642;2023-07-31T07:07:55;2.88;;;1.83;;
64063;SDS011;50314;50.618;10.642;2023-07-31T07:10:21;3.58;;;1.65;;
64063;SDS011;50314;50.618;10.642;2023-07-31T07:12:47;2.83;;;1.70;;
64063;SDS011;50314;50.618;10.642;2023-07-31T07:17:39;2.08;;;1.20;;
64063;SDS011;50314;50.618;10.642;2023-07-31T07:20:04;2.25;;;1.65;;
64063;SDS011;50314;50.618;10.642;2023-07-31T07:22:31;2.60;;;1.65;;
64063;SDS011;50314;50.618;10.642;2023-07-31T07:24:56;2.13;;;1.65;;
64063;SDS011;50314;50.618;10.642;2023-07-31T07:27:22;4.22;;;1.67;;
64063;SDS011;50314;50.618;10.642;2023-07-31T07:29:49;3.95;;;1.77;;
64063;SDS011;50314;50.618;10.642;2023-07-31T07:32:16;2.90;;;1.60;;
64063;SDS011;50314;50.618;10.642;2023-07-31T07:34:43;3.00;;;1.55;;
64063;SDS011;50314;50.618;10.642;2023-07-31T07:37:08;4.35;;;1.58;;
64063;SDS011;50314;50.618;10.642;2023-07-31T07:39:34;3.20;;;1.70;;
64063;SDS011;50314;50.618;10.642;2023-07-31T07:42:00;2.30;;;1.48;;
64063;SDS011;50314;50.618;10.642;2023-07-31T07:44:25;3.17;;;1.95;;
64063;SDS011;50314;50.618;10.642;2023-07-31T07:46:51;2.60;;;1.65;;
64063;SDS011;50314;50.618;10.642;2023-07-31T07:49:17;3.78;;;1.58;;
64063;SDS011;50314;50.618;10.642;2023-07-31T07:51:43;3.28;;;1.83;;
64063;SDS011;50314;50.618;10.642;2023-07-31T07:54:08;2.25;;;1.70;;
64063;SDS011;50314;50.618;10.642;2023-07-31T07:56:34;3.13;;;1.60;;
64063;SDS011;50314;50.618;10.642;2023-07-31T07:59:01;3.67;;;1.83;;
64063;SDS011;50314;50.618;10.642;2023-07-31T08:01:27;2.17;;;1.55;;
64063;SDS011;50314;50.618;10.642;2023-07-31T08:03:52;2.55;;;1.50;;
64063;SDS011;50314;50.618;10.642;2023-07-31T08:06:18;1.92;;;1.45;;
64063;SDS011;50314;50.618;10.642;2023-07-31T08:08:43;2.42;;;1.60;;
64063;SDS011;50314;50.618;10.642;2023-07-31T08:11:09;2.63;;;1.38;;
64063;SDS011;50314;50.618;10.642;2023-07-31T08:13:34;2.15;;;1.35;;
64063;SDS011;50314;50.618;10.642;2023-07-31T08:16:02;2.85;;;1.48;;
64063;SDS011;50314;50.618;10.642;2023-07-31T08:18:29;2.33;;;1.38;;
64063;SDS011;50314;50.618;10.642;2023-07-31T08:20:55;1.83;;;1.27;;
64063;SDS011;50314;50.618;10.642;2023-07-31T08:23:21;2.33;;;1.50;;
64063;SDS011;50314;50.618;10.642;2023-07-31T08:25:46;3.35;;;1.80;;
64063;SDS011;50314;50.618;10.642;2023-07-31T08:28:12;3.25;;;1.70;;
64063;SDS011;50314;50.618;10.642;2023-07-31T08:30:37;2.13;;;1.17;;
64063;SDS011;50314;50.618;10.642;2023-07-31T08:33:03;2.30;;;1.20;;
64063;SDS011;50314;50.618;10.642;2023-07-31T08:35:28;1.85;;;1.45;;
64063;SDS011;50314;50.618;10.642;2023-07-31T08:37:54;2.35;;;1.48;;
64063;SDS011;50314;50.618;10.642;2023-07-31T08:40:20;3.08;;;1.60;;
64063;SDS011;50314;50.618;10.642;2023-07-31T08:42:47;2.38;;;1.33;;
64063;SDS011;50314;50.618;10.642;2023-07-31T08:45:16;2.38;;;1.60;;
64063;SDS011;50314;50.618;10.642;2023-07-31T08:47:46;2.05;;;1.38;;
64063;SDS011;50314;50.618;10.642;2023-07-31T08:52:42;3.15;;;1.60;;
64063;SDS011;50314;50.618;10.642;2023-07-31T08:55:08;1.75;;;1.42;;
64063;SDS011;50314;50.618;10.642;2023-07-31T08:57:35;2.72;;;1.45;;
64063;SDS011;50314;50.618;10.642;2023-07-31T09:00:05;2.50;;;1.65;;
64063;SDS011;50314;50.618;10.642;2023-07-31T09:02:41;3.92;;;1.60;;
64063;SDS011;50314;50.618;10.642;2023-07-31T09:05:11;2.38;;;1.70;;
64063;SDS011;50314;50.618;10.642;2023-07-31T09:07:37;3.35;;;1.70;;
64063;SDS011;50314;50.618;10.642;2023-07-31T09:10:04;4.18;;;2.15;;
64063;SDS011;50314;50.618;10.642;2023-07-31T09:12:31;5.00;;;2.28;;
64063;SDS011;50314;50.618;10.642;2023-07-31T09:14:57;5.47;;;2.22;;
64063;SDS011;50314;50.618;10.642;2023-07-31T09:17:30;4.70;;;2.17;;
64063;SDS011;50314;50.618;10.642;2023-07-31T09:19:56;4.95;;;2.00;;
64063;SDS011;50314;50.618;10.642;2023-07-31T09:22:32;3.67;;;1.80;;
64063;SDS011;50314;50.618;10.642;2023-07-31T09:28:00;3.67;;;1.83;;
64063;SDS011;50314;50.618;10.642;2023-07-31T09:30:28;2.50;;;1.52;;
64063;SDS011;50314;50.618;10.642;2023-07-31T09:33:03;4.15;;;2.20;;
64063;SDS011;50314;50.618;10.642;2023-07-31T09:35:33;4.85;;;1.83;;
64063;SDS011;50314;50.618;10.642;2023-07-31T09:38:03;5.28;;;2.20;;
64063;SDS011;50314;50.618;10.642;2023-07-31T09:40:31;4.03;;;2.05;;
64063;SDS011;50314;50.618;10.642;2023-07-31T09:42:59;3.60;;;1.65;;
64063;SDS011;50314;50.618;10.642;2023-07-31T09:45:39;3.88;;;1.83;;
64063;SDS011;50314;50.618;10.642;2023-07-31T09:48:09;3.30;;;1.80;;
64063;SDS011;50314;50.618;10.642;2023-07-31T09:50:43;4.20;;;2.00;;
64063;SDS011;50314;50.618;10.642;2023-07-31T09:53:10;3.28;;;1.88;;
64063;SDS011;50314;50.618;10.642;2023-07-31T09:55:36;4.57;;;2.28;;
64063;SDS011;50314;50.618;10.642;2023-07-31T10:00:35;3.15;;;1.70;;
64063;SDS011;50314;50.618;10.642;2023-07-31T10:03:04;2.92;;;1.60;;
64063;SDS011;50314;50.618;10.642;2023-07-31T10:05:33;3.42;;;1.80;;
64063;SDS011;50314;50.618;10.642;2023-07-31T10:08:00;3.55;;;1.73;;
64063;SDS011;50314;50.618;10.642;2023-07-31T10:10:26;3.78;;;1.75;;
64063;SDS011;50314;50.618;10.642;2023-07-31T10:12:53;2.95;;;1.60;;
64063;SDS011;50314;50.618;10.642;2023-07-31T10:15:19;3.33;;;1.83;;
64063;SDS011;50314;50.618;10.642;2023-07-31T10:17:48;3.47;;;1.60;;
64063;SDS011;50314;50.618;10.642;2023-07-31T10:20:15;3.22;;;1.63;;
64063;SDS011;50314;50.618;10.642;2023-07-31T10:22:42;2.95;;;1.63;;
64063;SDS011;50314;50.618;10.642;2023-07-31T10:25:08;2.30;;;1.30;;
64063;SDS011;50314;50.618;10.642;2023-07-31T10:27:35;3.00;;;1.50;;
64063;SDS011;50314;50.618;10.642;2023-07-31T10:30:03;3.83;;;1.98;;
64063;SDS011;50314;50.618;10.642;2023-07-31T10:32:31;4.00;;;1.67;;
64063;SDS011;50314;50.618;10.642;2023-07-31T10:34:57;3.97;;;1.77;;
64063;SDS011;50314;50.618;10.642;2023-07-31T10:40:02;2.10;;;1.33;;
64063;SDS011;50314;50.618;10.642;2023-07-31T10:42:48;2.95;;;1.70;;
64063;SDS011;50314;50.618;10.642;2023-07-31T10:48:19;2.03;;;1.30;;
64063;SDS011;50314;50.618;10.642;2023-07-31T10:50:46;3.35;;;1.58;;
64063;SDS011;50314;50.618;10.642;2023-07-31T10:53:24;2.50;;;1.70;;
64063;SDS011;50314;50.618;10.642;2023-07-31T10:55:57;2.80;;;1.90;;
64063;SDS011;50314;50.618;10.642;2023-07-31T10:58:27;3.28;;;1.50;;
64063;SDS011;50314;50.618;10.642;2023-07-31T11:00:56;2.92;;;1.48;;
64063;SDS011;50314;50.618;10.642;2023-07-31T11:03:27;2.50;;;1.55;;
64063;SDS011;50314;50.618;10.642;2023-07-31T11:06:17;2.15;;;1.42;;
64063;SDS011;50314;50.618;10.642;2023-07-31T11:08:46;4.28;;;1.33;;
64063;SDS011;50314;50.618;10.642;2023-07-31T11:11:14;2.58;;;1.40;;
64063;SDS011;50314;50.618;10.642;2023-07-31T11:16:13;2.35;;;1.23;;
64063;SDS011;50314;50.618;10.642;2023-07-31T11:18:42;2.25;;;1.50;;
64063;SDS011;50314;50.618;10.642;2023-07-31T11:21:11;3.53;;;1.67;;
64063;SDS011;50314;50.618;10.642;2023-07-31T11:23:38;2.42;;;1.38;;
64063;SDS011;50314;50.618;10.642;2023-07-31T11:26:04;2.90;;;1.63;;
64063;SDS011;50314;50.618;10.642;2023-07-31T11:28:34;2.15;;;1.55;;
64063;SDS011;50314;50.618;10.642;2023-07-31T11:31:00;2.40;;;1.35;;
64063;SDS011;50314;50.618;10.642;2023-07-31T11:33:26;3.28;;;1.63;;
64063;SDS011;50314;50.618;10.642;2023-07-31T11:35:52;2.00;;;1.55;;
64063;SDS011;50314;50.618;10.642;2023-07-31T11:38:36;2.60;;;1.48;;
64063;SDS011;50314;50.618;10.642;2023-07-31T11:41:02;3.05;;;1.65;;
64063;SDS011;50314;50.618;10.642;2023-07-31T11:43:29;2.88;;;1.70;;
64063;SDS011;50314;50.618;10.642;2023-07-31T11:45:56;4.55;;;1.85;;
64063;SDS011;50314;50.618;10.642;2023-07-31T11:50:51;3.47;;;1.80;;
64063;SDS011;50314;50.618;10.642;2023-07-31T11:53:35;4.57;;;2.28;;
64063;SDS011;50314;50.618;10.642;2023-07-31T11:56:03;3.45;;;1.95;;
64063;SDS011;50314;50.618;10.642;2023-07-31T11:58:30;5.43;;;2.03;;
64063;SDS011;50314;50.618;10.642;2023-07-31T12:00:57;3.88;;;1.88;;
64063;SDS011;50314;50.618;10.642;2023-07-31T12:03:24;4.03;;;1.85;;
64063;SDS011;50314;50.618;10.642;2023-07-31T12:05:50;3.72;;;1.80;;
64063;SDS011;50314;50.618;10.642;2023-07-31T12:08:15;5.05;;;1.95;;
64063;SDS011;50314;50.618;10.642;2023-07-31T12:10:41;5.53;;;2.22;;
64063;SDS011;50314;50.618;10.642;2023-07-31T12:13:09;3.25;;;1.92;;
64063;SDS011;50314;50.618;10.642;2023-07-31T12:18:11;4.07;;;2.28;;
64063;SDS011;50314;50.618;10.642;2023-07-31T12:20:45;3.67;;;1.95;;
64063;SDS011;50314;50.618;10.642;2023-07-31T12:23:13;2.85;;;1.90;;
64063;SDS011;50314;50.618;10.642;2023-07-31T12:25:40;5.05;;;2.00;;
64063;SDS011;50314;50.618;10.642;2023-07-31T12:28:06;4.75;;;2.03;;
64063;SDS011;50314;50.618;10.642;2023-07-31T12:30:36;2.58;;;1.67;;
64063;SDS011;50314;50.618;10.642;2023-07-31T12:33:06;3.30;;;2.10;;
64063;SDS011;50314;50.618;10.642;2023-07-31T12:35:37;5.32;;;2.33;;
64063;SDS011;50314;50.618;10.642;2023-07-31T12:38:05;2.50;;;1.42;;
64063;SDS011;50314;50.618;10.642;2023-07-31T12:40:31;3.88;;;1.88;;
64063;SDS011;50314;50.618;10.642;2023-07-31T12:42:57;4.28;;;1.92;;
64063;SDS011;50314;50.618;10.642;2023-07-31T12:45:26;4.40;;;1.98;;
64063;SDS011;50314;50.618;10.642;2023-07-31T12:47:52;4.10;;;1.92;;
64063;SDS011;50314;50.618;10.642;2023-07-31T12:50:18;4.50;;;2.10;;
64063;SDS011;50314;50.618;10.642;2023-07-31T12:52:43;4.53;;;2.10;;
64063;SDS011;50314;50.618;10.642;2023-07-31T12:55:09;4.25;;;2.10;;
64063;SDS011;50314;50.618;10.642;2023-07-31T12:57:36;4.63;;;1.80;;
64063;SDS011;50314;50.618;10.642;2023-07-31T13:00:02;3.92;;;2.00;;
64063;SDS011;50314;50.618;10.642;2023-07-31T13:02:28;4.13;;;1.73;;
64063;SDS011;50314;50.618;10.642;2023-07-31T13:04:53;3.75;;;1.88;;
64063;SDS011;50314;50.618;10.642;2023-07-31T13:07:19;3.70;;;2.25;;
64063;SDS011;50314;50.618;10.642;2023-07-31T13:09:45;4.07;;;2.03;;
64063;SDS011;50314;50.618;10.642;2023-07-31T13:12:10;3.42;;;1.88;;
64063;SDS011;50314;50.618;10.642;2023-07-31T13:14:36;5.05;;;1.98;;
64063;SDS011;50314;50.618;10.642;2023-07-31T13:17:01;4.18;;;2.03;;
64063;SDS011;50314;50.618;10.642;2023-07-31T13:19:27;3.35;;;1.95;;
64063;SDS011;50314;50.618;10.642;2023-07-31T13:21:53;3.92;;;2.20;;
64063;SDS011;50314;50.618;10.642;2023-07-31T13:24:18;4.95;;;1.90;;
64063;SDS011;50314;50.618;10.642;2023-07-31T13:26:44;4.10;;;2.13;;
64063;SDS011;50314;50.618;10.642;2023-07-31T13:29:09;3.63;;;1.80;;
64063;SDS011;50314;50.618;10.642;2023-07-31T13:31:35;3.95;;;2.00;;
64063;SDS011;50314;50.618;10.642;2023-07-31T13:34:01;3.47;;;1.85;;
64063;SDS011;50314;50.618;10.642;2023-07-31T13:36:27;3.17;;;1.70;;
64063;SDS011;50314;50.618;10.642;2023-07-31T13:38:53;4.38;;;1.92;;
64063;SDS011;50314;50.618;10.642;2023-07-31T13:41:19;4.03;;;2.03;;
64063;SDS011;50314;50.618;10.642;2023-07-31T13:43:44;3.22;;;1.70;;
64063;SDS011;50314;50.618;10.642;2023-07-31T13:46:10;4.63;;;2.10;;
64063;SDS011;50314;50.618;10.642;2023-07-31T13:48:36;3.83;;;1.80;;
64063;SDS011;50314;50.618;10.642;2023-07-31T13:51:02;3.35;;;1.75;;
64063;SDS011;50314;50.618;10.642;2023-07-31T13:53:28;3.17;;;1.65;;
64063;SDS011;50314;50.618;10.642;2023-07-31T13:55:53;2.65;;;1.67;;
64063;SDS011;50314;50.618;10.642;2023-07-31T13:58:20;3.70;;;2.05;;
64063;SDS011;50314;50.618;10.642;2023-07-31T14:05:37;3.80;;;1.48;;
64063;SDS011;50314;50.618;10.642;2023-07-31T14:08:03;4.47;;;2.10;;
64063;SDS011;50314;50.618;10.642;2023-07-31T14:10:28;3.80;;;1.80;;
64063;SDS011;50314;50.618;10.642;2023-07-31T14:12:54;4.25;;;1.85;;
64063;SDS011;50314;50.618;10.642;2023-07-31T14:15:19;2.83;;;1.75;;
64063;SDS011;50314;50.618;10.642;2023-07-31T14:17:45;3.67;;;1.77;;
64063;SDS011;50314;50.618;10.642;2023-07-31T14:20:11;4.47;;;1.92;;
64063;SDS011;50314;50.618;10.642;2023-07-31T14:22:37;2.80;;;1.83;;
64063;SDS011;50314;50.618;10.642;2023-07-31T14:25:03;3.35;;;1.73;;
64063;SDS011;50314;50.618;10.642;2023-07-31T14:27:29;5.13;;;1.80;;
64063;SDS011;50314;50.618;10.642;2023-07-31T14:29:54;5.32;;;1.95;;
64063;SDS011;50314;50.618;10.642;2023-07-31T14:32:20;3.22;;;1.77;;
64063;SDS011;50314;50.618;10.642;2023-07-31T14:34:48;3.17;;;1.77;;
64063;SDS011;50314;50.618;10.642;2023-07-31T14:37:14;3.55;;;1.58;;
64063;SDS011;50314;50.618;10.642;2023-07-31T14:39:39;4.63;;;1.85;;
64063;SDS011;50314;50.618;10.642;2023-07-31T14:42:05;2.83;;;1.67;;
64063;SDS011;50314;50.618;10.642;2023-07-31T14:44:31;3.63;;;1.83;;
64063;SDS011;50314;50.618;10.642;2023-07-31T14:46:56;2.38;;;1.35;;
64063;SDS011;50314;50.618;10.642;2023-07-31T14:49:22;3.83;;;1.75;;
64063;SDS011;50314;50.618;10.642;2023-07-31T14:51:47;2.38;;;1.50;;
64063;SDS011;50314;50.618;10.642;2023-07-31T14:54:13;3.33;;;1.60;;
64063;SDS011;50314;50.618;10.642;2023-07-31T14:56:39;3.20;;;1.50;;
64063;SDS011;50314;50.618;10.642;2023-07-31T14:59:04;2.95;;;1.88;;
64063;SDS011;50314;50.618;10.642;2023-07-31T15:01:30;3.78;;;1.77;;
64063;SDS011;50314;50.618;10.642;2023-07-31T15:03:55;3.42;;;1.90;;
64063;SDS011;50314;50.618;10.642;2023-07-31T15:06:21;2.83;;;1.60;;
64063;SDS011;50314;50.618;10.642;2023-07-31T15:08:46;3.05;;;1.70;;
64063;SDS011;50314;50.618;10.642;2023-07-31T15:11:12;2.92;;;1.55;;
64063;SDS011;50314;50.618;10.642;2023-07-31T15:13:38;3.28;;;1.65;;